Time;durP1;ratioP1;P1;durP2;ratioP2;P2;SDS_P1;SDS_P2;PMS_P1;PMS_P2;Temp;Humidity;BMP_temperature;BMP_pressure;BME280_temperature;BME280_humidity;BME280_pressure;Samples;Min_cycle;Max_cycle;Signal;HPM_P1;HPM_P2
2023/04/28 00:01:33;;;;;;;39.63;11.03;;;18.00;54.10;;;;;;5080186;28;20206;-90
2023/04/28 00:04:00;;;;;;;46.40;11.00;;;18.00;54.00;;;;;;5087820;28;21074;-86
2023/04/28 00:06:27;;;;;;;40.60;11.43;;;18.00;54.00;;;;;;5089456;28;20832;-85
2023/04/28 00:08:54;;;;;;;45.83;12.27;;;18.00;54.10;;;;;;5083345;28;20205;-86
2023/04/28 00:11:21;;;;;;;46.90;12.30;;;18.00;54.00;;;;;;5085114;28;20280;-88
2023/04/28 00:13:49;;;;;;;38.43;10.93;;;18.00;54.00;;;;;;5070689;28;20264;-88
2023/04/28 00:16:16;;;;;;;37.47;11.60;;;18.00;54.00;;;;;;5078098;28;20755;-84
2023/04/28 00:18:44;;;;;;;39.07;11.27;;;17.90;53.90;;;;;;5087474;28;20213;-86
2023/04/28 00:21:11;;;;;;;37.13;10.43;;;17.90;53.90;;;;;;5090932;28;20674;-84
2023/04/28 00:23:38;;;;;;;43.67;11.10;;;17.90;53.90;;;;;;5073416;28;20282;-88
2023/04/28 00:26:05;;;;;;;36.80;10.47;;;17.90;54.10;;;;;;5082166;28;20337;-84
2023/04/28 00:28:32;;;;;;;31.97;10.90;;;17.90;54.00;;;;;;5071516;28;20235;-85
2023/04/28 00:30:59;;;;;;;31.87;9.97;;;17.90;54.00;;;;;;5082924;28;20341;-90
2023/04/28 00:33:26;;;;;;;35.37;10.10;;;17.90;54.00;;;;;;5077563;28;20212;-87
2023/04/28 00:36:00;;;;;;;35.97;11.03;;;17.90;54.00;;;;;;5078289;28;20199;-85
2023/04/28 00:38:27;;;;;;;38.90;9.90;;;17.90;53.90;;;;;;5082475;28;20214;-87
2023/04/28 00:40:54;;;;;;;55.50;12.33;;;17.90;54.00;;;;;;5069669;28;20246;-84
2023/04/28 00:43:21;;;;;;;37.70;10.00;;;17.90;54.00;;;;;;5070005;28;20211;-86
2023/04/28 00:45:49;;;;;;;49.53;11.03;;;17.80;53.90;;;;;;5070032;28;20286;-88
2023/04/28 00:48:17;;;;;;;43.20;10.53;;;17.80;53.90;;;;;;5071124;28;20278;-90
2023/04/28 00:50:45;;;;;;;40.57;10.13;;;17.80;53.90;;;;;;5070363;28;20708;-91
2023/04/28 00:53:14;;;;;;;52.47;11.57;;;17.80;53.90;;;;;;5082069;28;20324;-91
2023/04/28 00:55:46;;;;;;;43.60;10.90;;;17.80;53.90;;;;;;5084385;28;20237;-93
2023/04/28 00:58:13;;;;;;;54.70;12.10;;;17.80;54.00;;;;;;5073309;28;20203;-89
2023/04/28 01:00:40;;;;;;;41.67;10.63;;;17.80;53.90;;;;;;5071978;28;20284;-86
2023/04/28 01:03:07;;;;;;;46.10;11.57;;;17.80;54.00;;;;;;5074145;28;20285;-87
2023/04/28 01:05:36;;;;;;;52.43;11.27;;;17.80;54.00;;;;;;5070004;28;20782;-93
2023/04/28 01:08:03;;;;;;;35.93;10.13;;;17.80;54.00;;;;;;5069731;28;20639;-90
2023/04/28 01:10:31;;;;;;;31.20;10.50;;;17.70;53.90;;;;;;5069918;28;20218;-85
2023/04/28 01:13:01;;;;;;;35.53;10.43;;;17.70;53.90;;;;;;5070491;28;20290;-90
2023/04/28 01:15:29;;;;;;;35.87;10.53;;;17.70;53.90;;;;;;5070066;28;20663;-90
2023/04/28 01:17:56;;;;;;;35.73;9.80;;;17.70;53.90;;;;;;5070666;28;20386;-91
2023/04/28 01:20:23;;;;;;;36.33;10.63;;;17.70;53.90;;;;;;5073697;28;20658;-85
2023/04/28 01:22:50;;;;;;;29.83;9.70;;;17.70;53.90;;;;;;5087035;28;20204;-90
2023/04/28 01:25:19;;;;;;;42.50;10.80;;;17.70;53.90;;;;;;5067323;28;20290;-85
2023/04/28 01:27:46;;;;;;;66.50;12.57;;;17.70;53.90;;;;;;5076783;28;20637;-85
2023/04/28 01:30:13;;;;;;;62.00;12.03;;;17.70;53.90;;;;;;5085292;28;20324;-84
2023/04/28 01:32:40;;;;;;;42.20;10.97;;;17.70;53.90;;;;;;5072449;28;20286;-85
2023/04/28 01:35:08;;;;;;;36.50;10.23;;;17.70;53.90;;;;;;5081726;28;20248;-84
2023/04/28 01:37:34;;;;;;;57.37;12.17;;;17.70;53.90;;;;;;5076448;28;20625;-86
2023/04/28 01:40:01;;;;;;;56.00;11.83;;;17.70;53.90;;;;;;5081478;28;20209;-85
2023/04/28 01:42:30;;;;;;;47.07;11.37;;;17.60;53.80;;;;;;5085398;28;20717;-85
2023/04/28 01:44:57;;;;;;;37.40;9.40;;;17.60;53.80;;;;;;5086635;28;20319;-85
2023/04/28 01:47:23;;;;;;;46.30;11.23;;;17.60;53.80;;;;;;5069510;28;20298;-85
2023/04/28 01:49:54;;;;;;;34.27;9.73;;;17.60;53.80;;;;;;5068657;28;20293;-86
2023/04/28 01:52:23;;;;;;;38.07;9.93;;;17.60;53.90;;;;;;5068108;28;20308;-88
2023/04/28 01:54:50;;;;;;;41.50;10.57;;;17.60;53.90;;;;;;5075890;28;20213;-85
2023/04/28 01:57:17;;;;;;;43.80;11.30;;;17.60;53.80;;;;;;5086449;28;20278;-85
2023/04/28 01:59:45;;;;;;;48.00;11.27;;;17.60;53.80;;;;;;5076401;28;20297;-84
2023/04/28 02:02:12;;;;;;;38.90;10.47;;;17.60;53.80;;;;;;5070882;28;20281;-85
2023/04/28 02:04:39;;;;;;;37.77;10.10;;;17.60;53.80;;;;;;5072249;28;20500;-85
2023/04/28 02:07:07;;;;;;;39.20;10.37;;;17.60;53.80;;;;;;5068653;28;20295;-85
2023/04/28 02:09:34;;;;;;;44.00;9.83;;;17.60;53.80;;;;;;5070965;28;20321;-84
2023/04/28 02:12:01;;;;;;;37.80;10.07;;;17.60;53.80;;;;;;5084498;28;20259;-84
2023/04/28 02:14:28;;;;;;;37.07;10.40;;;17.60;54.40;;;;;;5088596;28;20209;-85
2023/04/28 02:16:56;;;;;;;34.97;10.63;;;17.50;53.70;;;;;;5072924;28;20260;-85
2023/04/28 02:19:23;;;;;;;43.97;10.77;;;17.50;53.70;;;;;;5070372;28;20297;-84
2023/04/28 02:21:50;;;;;;;41.83;10.33;;;17.50;53.70;;;;;;5088089;28;20209;-86
2023/04/28 02:24:17;;;;;;;39.33;10.50;;;17.60;53.90;;;;;;5069618;28;20253;-84
2023/04/28 02:26:44;;;;;;;47.03;11.17;;;17.50;53.80;;;;;;5078952;28;20251;-84
2023/04/28 02:29:11;;;;;;;41.63;10.60;;;17.50;53.70;;;;;;5076752;28;20289;-84
2023/04/28 02:31:38;;;;;;;42.67;10.87;;;17.50;53.80;;;;;;5088305;28;20233;-84
2023/04/28 02:34:06;;;;;;;39.70;10.13;;;17.50;53.70;;;;;;5078639;28;20282;-84
2023/04/28 02:36:33;;;;;;;35.93;9.77;;;17.50;53.70;;;;;;5087908;28;20310;-84
2023/04/28 02:39:00;;;;;;;56.67;12.10;;;17.50;53.70;;;;;;5075407;28;20195;-84
2023/04/28 02:41:29;;;;;;;44.03;11.23;;;17.50;53.70;;;;;;5070074;28;20252;-85
2023/04/28 02:43:56;;;;;;;35.10;10.10;;;17.50;53.70;;;;;;5068102;28;20199;-85
2023/04/28 02:46:23;;;;;;;68.47;12.87;;;17.50;53.70;;;;;;5068326;28;20238;-84
2023/04/28 02:48:50;;;;;;;41.23;11.00;;;17.40;53.70;;;;;;5068337;28;20209;-84
2023/04/28 02:51:19;;;;;;;43.33;10.73;;;17.50;53.70;;;;;;5066537;28;20317;-85
2023/04/28 02:53:46;;;;;;;53.13;11.27;;;17.40;53.70;;;;;;5071885;28;20206;-85
2023/04/28 02:56:13;;;;;;;34.13;10.20;;;17.40;53.70;;;;;;5067379;28;20291;-85
2023/04/28 02:58:39;;;;;;;43.73;10.97;;;17.40;53.70;;;;;;5068991;28;20294;-85
2023/04/28 03:01:06;;;;;;;41.67;10.77;;;17.40;53.70;;;;;;5072543;28;20202;-85
2023/04/28 03:03:33;;;;;;;47.37;11.13;;;17.40;53.70;;;;;;5076185;28;20289;-87
2023/04/28 03:06:00;;;;;;;63.93;12.40;;;17.40;53.70;;;;;;5070143;28;20209;-84
2023/04/28 03:08:28;;;;;;;54.00;12.33;;;17.40;53.70;;;;;;5070599;28;20285;-85
2023/04/28 03:10:55;;;;;;;52.00;11.87;;;17.40;53.70;;;;;;5073067;28;20316;-85
2023/04/28 03:13:23;;;;;;;41.50;10.70;;;17.40;53.70;;;;;;5087216;28;20214;-85
2023/04/28 03:15:50;;;;;;;43.63;11.13;;;17.40;53.70;;;;;;5087851;28;20236;-84
2023/04/28 03:18:17;;;;;;;41.03;10.83;;;17.40;53.70;;;;;;5080435;28;20370;-84
2023/04/28 03:20:44;;;;;;;39.30;11.07;;;17.40;53.70;;;;;;5067043;28;20242;-85
2023/04/28 03:23:11;;;;;;;46.23;10.83;;;17.40;53.70;;;;;;5071510;28;20286;-88
2023/04/28 03:25:39;;;;;;;34.67;10.13;;;17.40;53.70;;;;;;5069914;28;20669;-89
2023/04/28 03:28:06;;;;;;;35.80;10.03;;;17.40;53.70;;;;;;5076794;28;20285;-85
2023/04/28 03:30:33;;;;;;;56.97;12.80;;;17.40;53.70;;;;;;5078542;28;20285;-85
2023/04/28 03:33:00;;;;;;;42.97;10.97;;;17.40;53.70;;;;;;5065962;28;20293;-86
2023/04/28 03:35:27;;;;;;;43.90;11.27;;;17.40;53.70;;;;;;5066753;28;20283;-85
2023/04/28 03:37:54;;;;;;;45.90;11.60;;;17.40;53.70;;;;;;5080740;28;20287;-86
2023/04/28 03:40:24;;;;;;;34.27;10.57;;;17.30;54.20;;;;;;5082285;28;20267;-85
2023/04/28 03:42:53;;;;;;;42.77;11.43;;;17.30;53.60;;;;;;5075501;28;20199;-85
2023/04/28 03:45:20;;;;;;;37.40;10.93;;;17.30;53.60;;;;;;5085544;28;20580;-85
2023/04/28 03:47:47;;;;;;;34.63;11.10;;;17.30;53.60;;;;;;5088279;28;20191;-85
2023/04/28 03:50:15;;;;;;;40.07;11.33;;;17.30;53.70;;;;;;5078305;28;20215;-87
2023/04/28 03:52:41;;;;;;;29.17;9.53;;;17.30;53.60;;;;;;5088683;28;20216;-85
2023/04/28 03:55:09;;;;;;;43.47;11.20;;;17.30;53.70;;;;;;5077414;28;20205;-90
2023/04/28 03:57:36;;;;;;;40.03;10.93;;;17.30;53.70;;;;;;5081982;28;20236;-90
2023/04/28 04:00:06;;;;;;;41.93;11.97;;;17.30;53.70;;;;;;5086851;28;20278;-90
2023/04/28 04:02:33;;;;;;;43.77;11.53;;;17.30;53.70;;;;;;5091989;28;20309;-85
2023/04/28 04:05:00;;;;;;;42.50;11.13;;;17.30;53.70;;;;;;5070389;28;20226;-86
2023/04/28 04:07:27;;;;;;;52.37;12.40;;;17.30;53.70;;;;;;5070443;28;20209;-85
2023/04/28 04:09:54;;;;;;;41.20;10.97;;;17.30;53.70;;;;;;5073821;28;20195;-87
2023/04/28 04:12:21;;;;;;;38.03;10.67;;;17.30;53.70;;;;;;5091323;28;20323;-85
2023/04/28 04:14:48;;;;;;;38.17;10.40;;;17.30;53.80;;;;;;5088366;28;20204;-85
2023/04/28 04:17:17;;;;;;;38.23;10.77;;;17.20;53.70;;;;;;5087736;28;20793;-85
2023/04/28 04:19:44;;;;;;;34.17;9.97;;;17.30;53.80;;;;;;5081237;28;20375;-85
2023/04/28 04:22:10;;;;;;;47.57;11.40;;;17.20;54.30;;;;;;5070784;28;20210;-89
2023/04/28 04:24:38;;;;;;;42.27;11.23;;;17.30;53.80;;;;;;5082753;28;20240;-86
2023/04/28 04:27:05;;;;;;;41.67;10.70;;;17.30;53.80;;;;;;5089929;28;20292;-87
2023/04/28 04:29:31;;;;;;;49.70;11.23;;;17.20;53.80;;;;;;5089866;28;20271;-84
2023/04/28 04:31:58;;;;;;;36.20;10.97;;;17.20;54.30;;;;;;5070319;28;20310;-84
2023/04/28 04:34:27;;;;;;;35.00;10.10;;;17.20;54.40;;;;;;5075948;28;20318;-87
2023/04/28 04:36:54;;;;;;;39.10;10.90;;;17.20;53.70;;;;;;5078474;28;20664;-85
2023/04/28 04:39:21;;;;;;;42.17;11.63;;;17.20;53.80;;;;;;5079547;28;20288;-85
2023/04/28 04:41:48;;;;;;;50.30;11.60;;;17.20;53.80;;;;;;5080350;28;20212;-85
2023/04/28 04:44:15;;;;;;;40.23;11.27;;;17.20;54.40;;;;;;5081771;28;20284;-85
2023/04/28 04:46:42;;;;;;;42.30;11.07;;;17.20;53.80;;;;;;5090651;28;20229;-87
2023/04/28 04:49:09;;;;;;;35.60;10.57;;;17.20;53.80;;;;;;5079583;28;20263;-85
2023/04/28 04:51:37;;;;;;;33.23;10.33;;;17.30;53.90;;;;;;5072689;28;20302;-85
2023/04/28 04:54:04;;;;;;;45.83;11.83;;;17.20;53.80;;;;;;5082545;28;20227;-84
2023/04/28 04:56:31;;;;;;;33.17;10.40;;;17.20;53.80;;;;;;5078332;28;20210;-85
2023/04/28 04:58:58;;;;;;;30.70;10.07;;;17.20;53.80;;;;;;5072504;28;20199;-84
2023/04/28 05:01:25;;;;;;;56.40;12.33;;;17.30;53.90;;;;;;5072171;28;20577;-85
2023/04/28 05:03:52;;;;;;;48.70;11.80;;;17.20;53.80;;;;;;5074421;28;20220;-85
2023/04/28 05:06:19;;;;;;;40.83;11.43;;;17.20;53.80;;;;;;5087128;28;20209;-85
2023/04/28 05:08:48;;;;;;;42.80;11.40;;;17.20;53.80;;;;;;5090234;28;20302;-85
2023/04/28 05:11:15;;;;;;;43.93;11.27;;;17.20;53.80;;;;;;5088896;28;21041;-84
2023/04/28 05:13:42;;;;;;;32.33;10.60;;;17.20;53.80;;;;;;5077001;28;20207;-84
2023/04/28 05:16:09;;;;;;;35.40;9.80;;;17.20;53.90;;;;;;5069398;28;20288;-84
2023/04/28 05:18:36;;;;;;;48.77;11.43;;;17.20;53.80;;;;;;5078950;28;20204;-85
2023/04/28 05:21:04;;;;;;;39.90;11.03;;;17.20;53.90;;;;;;5076259;28;20201;-85
2023/04/28 05:23:31;;;;;;;38.70;10.93;;;17.20;53.90;;;;;;5081080;28;20201;-85
2023/04/28 05:25:59;;;;;;;43.13;11.77;;;17.20;53.90;;;;;;5068356;28;20289;-85
2023/04/28 05:28:26;;;;;;;50.67;11.80;;;17.20;53.80;;;;;;5068747;28;20639;-85
2023/04/28 05:30:53;;;;;;;61.47;12.93;;;17.20;53.90;;;;;;5077080;28;20285;-86
2023/04/28 05:33:20;;;;;;;35.10;10.70;;;17.20;53.90;;;;;;5077546;28;20235;-85
2023/04/28 05:35:47;;;;;;;48.37;10.80;;;17.20;53.90;;;;;;5073785;28;20209;-85
2023/04/28 05:38:14;;;;;;;55.40;11.70;;;17.20;53.90;;;;;;5069256;28;20292;-87
2023/04/28 05:40:41;;;;;;;39.23;10.43;;;17.20;53.90;;;;;;5074129;28;20688;-85
2023/04/28 05:43:10;;;;;;;35.57;11.03;;;17.20;53.90;;;;;;5081742;28;20281;-86
2023/04/28 05:45:37;;;;;;;35.87;9.90;;;17.20;53.90;;;;;;5068453;28;20206;-86
2023/04/28 05:48:05;;;;;;;36.87;9.93;;;17.20;53.90;;;;;;5070334;28;20206;-84
2023/04/28 05:50:32;;;;;;;72.00;13.70;;;17.20;53.90;;;;;;5067415;28;20653;-85
2023/04/28 05:52:59;;;;;;;36.80;9.73;;;17.20;53.90;;;;;;5084813;28;20932;-85
2023/04/28 05:55:26;;;;;;;62.73;11.93;;;17.20;53.90;;;;;;5077034;28;20200;-85
2023/04/28 05:57:54;;;;;;;41.77;9.73;;;17.20;53.90;;;;;;5083911;28;20202;-85
2023/04/28 06:00:22;;;;;;;52.90;11.70;;;17.20;53.90;;;;;;5073596;28;20244;-86
2023/04/28 06:02:50;;;;;;;29.00;8.93;;;17.20;53.90;;;;;;5077609;28;20197;-85
2023/04/28 06:05:17;;;;;;;34.43;9.47;;;17.20;53.90;;;;;;5073642;28;20284;-86
2023/04/28 06:07:45;;;;;;;36.83;9.53;;;17.20;53.90;;;;;;5070786;28;20211;-85
2023/04/28 06:10:12;;;;;;;39.60;9.40;;;17.20;54.00;;;;;;5084334;28;20198;-86
2023/04/28 06:12:39;;;;;;;38.47;9.37;;;17.20;54.00;;;;;;5087805;28;20229;-86
2023/04/28 06:15:08;;;;;;;57.37;10.53;;;17.20;54.00;;;;;;5081329;28;20256;-85
2023/04/28 06:17:38;;;;;;;41.97;9.10;;;17.20;54.00;;;;;;5071863;28;20317;-85
2023/04/28 06:20:07;;;;;;;40.80;8.57;;;17.20;54.00;;;;;;5078879;28;20197;-86
2023/04/28 06:22:34;;;;;;;33.43;8.67;;;17.20;54.00;;;;;;5088960;28;20201;-89
2023/04/28 06:25:01;;;;;;;33.93;8.20;;;17.20;54.00;;;;;;5079853;28;20302;-96
2023/04/28 06:27:31;;;;;;;38.13;8.43;;;17.20;54.00;;;;;;5069175;28;20282;-87
2023/04/28 06:29:58;;;;;;;33.93;7.73;;;17.30;54.10;;;;;;5074294;28;20237;-92
2023/04/28 06:32:25;;;;;;;36.10;7.53;;;17.30;54.20;;;;;;5073631;28;20321;-89
2023/04/28 06:34:53;;;;;;;40.70;8.27;;;17.30;54.20;;;;;;5069659;28;20274;-93
2023/04/28 06:37:21;;;;;;;37.17;7.87;;;17.30;54.20;;;;;;5076100;28;20209;-87
2023/04/28 06:39:48;;;;;;;39.43;8.10;;;17.30;54.20;;;;;;5070322;28;20206;-93
2023/04/28 06:42:17;;;;;;;32.97;7.33;;;17.30;54.20;;;;;;5068005;28;20291;-92
2023/04/28 06:44:44;;;;;;;36.43;7.53;;;17.30;54.30;;;;;;5068308;28;20339;-86
2023/04/28 06:47:11;;;;;;;45.77;8.20;;;17.30;54.20;;;;;;5067164;28;20222;-90
2023/04/28 06:49:38;;;;;;;39.93;7.57;;;17.30;54.20;;;;;;5076444;28;20352;-88
2023/04/28 06:52:07;;;;;;;43.33;7.73;;;17.30;54.20;;;;;;5070014;28;20326;-85
2023/04/28 06:54:36;;;;;;;39.70;7.73;;;17.30;54.30;;;;;;5075407;28;20303;-85
2023/04/28 06:57:03;;;;;;;48.40;8.20;;;17.30;54.30;;;;;;5074494;28;20214;-86
2023/04/28 06:59:31;;;;;;;29.93;6.57;;;17.40;54.40;;;;;;5084016;28;20689;-88
2023/04/28 07:01:59;;;;;;;37.13;7.37;;;17.40;54.40;;;;;;5084528;28;20206;-89
2023/04/28 07:04:26;;;;;;;43.47;7.77;;;17.40;54.40;;;;;;5079225;28;20312;-85
2023/04/28 07:06:55;;;;;;;41.37;7.47;;;17.30;54.30;;;;;;5082788;28;20238;-90
2023/04/28 07:09:23;;;;;;;33.93;7.07;;;17.40;54.40;;;;;;5068676;28;20261;-89
2023/04/28 07:11:50;;;;;;;38.23;7.43;;;17.40;54.40;;;;;;5082674;28;20309;-86
2023/04/28 07:14:17;;;;;;;39.63;7.93;;;17.40;54.40;;;;;;5083388;28;20199;-88
2023/04/28 07:16:44;;;;;;;41.20;7.47;;;17.40;54.40;;;;;;5080724;28;20245;-86
2023/04/28 07:19:11;;;;;;;52.73;8.17;;;17.40;54.40;;;;;;5090388;28;20622;-86
2023/04/28 07:21:38;;;;;;;32.60;6.60;;;17.40;54.40;;;;;;5069981;28;20229;-85
2023/04/28 07:24:05;;;;;;;53.53;8.47;;;17.40;54.40;;;;;;5073780;28;20202;-90
2023/04/28 07:26:35;;;;;;;30.83;6.07;;;17.40;54.40;;;;;;5093790;28;20281;-86
2023/04/28 07:29:02;;;;;;;38.43;6.97;;;17.50;55.10;;;;;;5087610;28;20248;-86
2023/04/28 07:31:29;;;;;;;30.50;6.57;;;17.50;54.50;;;;;;5086836;28;20583;-89
2023/04/28 07:33:56;;;;;;;38.00;6.67;;;17.50;54.50;;;;;;5081557;28;20237;-91
2023/04/28 07:36:23;;;;;;;33.33;6.40;;;17.50;54.50;;;;;;5072426;28;20706;-86
2023/04/28 07:38:50;;;;;;;44.60;7.30;;;17.50;54.60;;;;;;5074142;28;20211;-88
2023/04/28 07:41:17;;;;;;;42.57;7.30;;;17.50;54.60;;;;;;5076191;28;20258;-86
2023/04/28 07:43:46;;;;;;;39.00;7.20;;;17.50;54.50;;;;;;5077549;28;20730;-91
2023/04/28 07:46:13;;;;;;;38.20;7.17;;;17.50;54.60;;;;;;5086684;28;20222;-85
2023/04/28 07:48:40;;;;;;;35.57;6.83;;;17.50;54.60;;;;;;5084441;28;20196;-91
2023/04/28 07:51:07;;;;;;;33.30;6.47;;;17.60;54.60;;;;;;5071698;28;20289;-92
2023/04/28 07:53:34;;;;;;;39.10;6.57;;;17.60;54.60;;;;;;5078384;28;20283;-85
2023/04/28 07:56:01;;;;;;;66.37;9.07;;;17.60;54.70;;;;;;5072395;28;20727;-85
2023/04/28 07:58:28;;;;;;;27.30;5.53;;;17.60;54.70;;;;;;5076491;28;20866;-88
2023/04/28 08:00:56;;;;;;;36.07;6.60;;;17.60;54.70;;;;;;5078442;28;20242;-85
2023/04/28 08:03:23;;;;;;;29.73;6.20;;;17.60;54.70;;;;;;5071108;28;20211;-93
2023/04/28 08:05:50;;;;;;;31.00;6.03;;;17.60;54.70;;;;;;5071245;28;20268;-92
2023/04/28 08:08:17;;;;;;;28.07;5.87;;;17.60;55.30;;;;;;5071104;28;20618;-85
2023/04/28 08:10:44;;;;;;;32.23;6.13;;;17.60;54.70;;;;;;5070846;28;20214;-84
2023/04/28 08:13:11;;;;;;;31.93;6.03;;;17.60;54.70;;;;;;5081643;28;20341;-85
2023/04/28 08:15:39;;;;;;;31.13;5.80;;;17.60;54.70;;;;;;5073205;28;20208;-86
2023/04/28 08:18:10;;;;;;;42.27;6.93;;;17.60;54.70;;;;;;5077877;28;20282;-85
2023/04/28 08:20:37;;;;;;;29.77;5.83;;;17.70;54.80;;;;;;5085683;28;20235;-84
2023/04/28 08:23:04;;;;;;;31.87;5.90;;;17.70;54.80;;;;;;5071560;28;20268;-85
2023/04/28 08:25:31;;;;;;;45.37;6.77;;;17.70;54.80;;;;;;5089436;28;20237;-85
2023/04/28 08:27:58;;;;;;;31.70;6.23;;;17.70;54.80;;;;;;5077410;28;20849;-86
2023/04/28 08:30:25;;;;;;;26.80;5.70;;;17.70;54.80;;;;;;5091046;28;20241;-85
2023/04/28 08:32:53;;;;;;;40.83;6.70;;;17.70;54.80;;;;;;5072081;28;20287;-85
2023/04/28 08:35:21;;;;;;;33.83;6.17;;;17.70;54.80;;;;;;5070757;28;20250;-84
2023/04/28 08:37:49;;;;;;;31.30;5.80;;;17.70;54.80;;;;;;5078418;28;20767;-85
2023/04/28 08:40:16;;;;;;;32.70;6.13;;;17.70;54.80;;;;;;5084718;28;20471;-85
2023/04/28 08:42:44;;;;;;;36.43;6.13;;;17.70;54.90;;;;;;5078795;28;20310;-85
2023/04/28 08:45:13;;;;;;;35.37;6.17;;;17.70;54.90;;;;;;5074311;28;20199;-85
2023/04/28 08:47:44;;;;;;;36.20;6.30;;;17.80;54.90;;;;;;5083397;28;20685;-85
2023/04/28 08:50:12;;;;;;;27.23;5.43;;;17.80;54.90;;;;;;5079624;28;20655;-85
2023/04/28 08:52:42;;;;;;;25.20;5.30;;;17.80;54.90;;;;;;5070318;28;20214;-85
2023/04/28 08:55:11;;;;;;;30.27;6.13;;;17.80;54.90;;;;;;5085119;28;20214;-89
2023/04/28 08:57:39;;;;;;;19.63;4.47;;;17.80;54.90;;;;;;5085186;28;20314;-90
2023/04/28 09:00:08;;;;;;;21.17;5.20;;;17.80;54.90;;;;;;5077300;28;20210;-87
2023/04/28 09:02:40;;;;;;;22.87;5.43;;;17.80;54.90;;;;;;5080021;28;20209;-90
2023/04/28 09:05:07;;;;;;;36.73;6.60;;;17.80;54.90;;;;;;5079547;28;20413;-85
2023/04/28 09:07:35;;;;;;;27.13;5.73;;;17.80;54.90;;;;;;5070431;28;20306;-88
2023/04/28 09:10:20;;;;;;;26.07;5.50;;;17.80;54.90;;;;;;5078876;28;20206;-92
2023/04/28 09:12:50;;;;;;;54.07;7.97;;;17.80;55.00;;;;;;5071130;28;20317;-88
2023/04/28 09:15:31;;;;;;;35.33;6.10;;;17.90;55.00;;;;;;5075514;28;20235;-88
2023/04/28 09:17:58;;;;;;;30.30;5.87;;;17.90;55.10;;;;;;5079418;28;20210;-85
2023/04/28 09:20:26;;;;;;;22.93;5.33;;;17.90;55.10;;;;;;5070792;28;20271;-86
2023/04/28 09:22:55;;;;;;;38.83;6.57;;;17.90;55.00;;;;;;5077697;28;20204;-90
2023/04/28 09:25:25;;;;;;;27.83;5.83;;;17.90;55.10;;;;;;5070332;28;20813;-88
2023/04/28 09:27:52;;;;;;;32.17;6.10;;;17.90;55.10;;;;;;5083119;28;20207;-89
2023/04/28 09:30:20;;;;;;;21.13;5.27;;;17.90;55.00;;;;;;5073673;28;20216;-85
2023/04/28 09:33:04;;;;;;;32.10;6.17;;;17.90;55.00;;;;;;5071621;28;20247;-87
2023/04/28 09:35:39;;;;;;;28.40;5.73;;;17.90;55.10;;;;;;5080745;28;20205;-85
2023/04/28 09:38:06;;;;;;;30.50;5.90;;;17.90;55.10;;;;;;5072757;28;20672;-88
2023/04/28 09:40:50;;;;;;;34.23;6.20;;;17.90;55.00;;;;;;5090075;28;20237;-85
2023/04/28 09:43:24;;;;;;;24.60;5.50;;;17.90;55.10;;;;;;5087960;28;20293;-85
2023/04/28 09:45:51;;;;;;;42.07;6.80;;;18.00;55.20;;;;;;5086908;28;20190;-85
2023/04/28 09:48:26;;;;;;;22.17;5.17;;;18.00;55.20;;;;;;5069501;28;20192;-85
2023/04/28 09:50:54;;;;;;;37.00;6.70;;;18.00;55.20;;;;;;5073088;28;20316;-85
2023/04/28 09:53:24;;;;;;;43.37;7.10;;;18.00;55.20;;;;;;5075234;28;20820;-85
2023/04/28 09:55:55;;;;;;;30.90;6.37;;;18.00;55.20;;;;;;5080719;28;20257;-86
2023/04/28 09:58:23;;;;;;;21.17;5.50;;;18.00;55.20;;;;;;5086505;28;20211;-85
2023/04/28 10:00:55;;;;;;;21.40;5.70;;;18.00;55.20;;;;;;5087747;28;20314;-85
2023/04/28 10:03:24;;;;;;;28.60;6.30;;;18.10;55.30;;;;;;5088267;28;20229;-85
2023/04/28 10:05:52;;;;;;;23.27;5.53;;;18.10;55.30;;;;;;5084286;28;20240;-85
2023/04/28 10:08:20;;;;;;;26.20;6.00;;;18.10;55.30;;;;;;5085418;28;20549;-85
2023/04/28 10:10:49;;;;;;;27.07;6.63;;;18.10;55.30;;;;;;5075057;28;20204;-85
2023/04/28 10:13:19;;;;;;;18.20;5.00;;;18.10;55.30;;;;;;5074359;28;20624;-86
2023/04/28 10:15:46;;;;;;;22.27;5.43;;;18.20;55.40;;;;;;5073844;28;20226;-87
2023/04/28 10:18:14;;;;;;;40.30;7.40;;;18.20;55.40;;;;;;5073311;28;20275;-84
2023/04/28 10:20:44;;;;;;;27.07;6.13;;;18.20;55.40;;;;;;5081912;28;20200;-84
2023/04/28 10:23:35;;;;;;;30.63;6.50;;;18.20;55.40;;;;;;5068655;28;20191;-84
2023/04/28 10:26:03;;;;;;;31.83;6.63;;;18.20;55.50;;;;;;5066484;28;20286;-84
2023/04/28 10:28:32;;;;;;;27.17;6.67;;;18.20;55.40;;;;;;5078225;28;20210;-84
2023/04/28 10:31:13;;;;;;;18.23;5.10;;;18.30;55.50;;;;;;5078515;28;20283;-86
2023/04/28 10:33:41;;;;;;;27.93;6.23;;;18.30;55.60;;;;;;5076940;28;20313;-84
2023/04/28 10:36:08;;;;;;;33.30;6.40;;;18.30;55.60;;;;;;5068488;28;20286;-84
2023/04/28 10:38:36;;;;;;;46.73;7.97;;;18.30;55.50;;;;;;5070656;28;20706;-84
2023/04/28 10:41:03;;;;;;;28.40;6.57;;;18.40;55.60;;;;;;5078522;28;20251;-86
2023/04/28 10:43:38;;;;;;;25.77;6.63;;;18.40;55.60;;;;;;5088840;28;20289;-86
2023/04/28 10:46:09;;;;;;;33.33;6.70;;;18.40;55.60;;;;;;5084130;28;20710;-86
2023/04/28 10:48:57;;;;;;;32.47;6.90;;;18.40;55.60;;;;;;5067797;28;20257;-84
2023/04/28 10:51:32;;;;;;;21.60;6.03;;;18.40;55.70;;;;;;5063693;28;20313;-85
2023/04/28 10:54:18;;;;;;;28.23;6.40;;;18.50;55.70;;;;;;5068800;28;20226;-84
2023/04/28 10:57:24;;;;;;;33.90;7.13;;;18.50;55.80;;;;;;5084817;28;20248;-86
2023/04/28 10:59:53;;;;;;;24.73;6.30;;;18.60;55.90;;;;;;5026735;28;20664;-86
2023/04/28 11:02:39;;;;;;;24.63;6.03;;;18.60;55.80;;;;;;5020668;28;20201;-86
2023/04/28 11:05:13;;;;;;;24.23;6.10;;;18.60;55.90;;;;;;5039557;28;20219;-85
2023/04/28 11:07:41;;;;;;;31.83;6.90;;;18.60;55.80;;;;;;5071715;28;20575;-86
2023/04/28 11:10:11;;;;;;;23.67;6.10;;;18.60;55.70;;;;;;5077066;28;20195;-87
2023/04/28 11:13:17;;;;;;;54.50;8.37;;;18.60;55.80;;;;;;5084040;28;20195;-85
2023/04/28 11:16:03;;;;;;;26.63;6.13;;;18.70;56.00;;;;;;5084567;28;20941;-85
2023/04/28 11:18:38;;;;;;;19.70;5.60;;;18.70;56.00;;;;;;5088913;28;20209;-86
2023/04/28 11:21:06;;;;;;;38.67;7.70;;;18.70;55.90;;;;;;5086728;28;20206;-85
2023/04/28 11:23:33;;;;;;;22.40;6.17;;;18.80;56.00;;;;;;5078644;28;20207;-87
2023/04/28 11:26:00;;;;;;;29.33;6.40;;;18.80;56.00;;;;;;5074962;28;20347;-85
2023/04/28 11:28:27;;;;;;;26.33;6.17;;;18.80;56.00;;;;;;5087443;28;20278;-86
2023/04/28 11:31:11;;;;;;;22.90;6.13;;;18.80;56.00;;;;;;5088748;28;20206;-86
2023/04/28 11:33:38;;;;;;;18.83;5.37;;;18.80;56.70;;;;;;5085886;28;20226;-85
2023/04/28 11:36:06;;;;;;;27.87;6.53;;;18.90;56.10;;;;;;5088323;28;20202;-85
2023/04/28 11:38:43;;;;;;;31.20;6.87;;;18.90;56.10;;;;;;5085421;28;20195;-84
2023/04/28 11:41:10;;;;;;;26.87;6.03;;;18.90;56.20;;;;;;5086888;28;20729;-85
2023/04/28 11:43:37;;;;;;;29.60;6.20;;;18.90;56.10;;;;;;5087555;28;20389;-85
2023/04/28 11:46:07;;;;;;;31.23;6.37;;;18.90;56.10;;;;;;5087539;28;20710;-85
2023/04/28 11:48:34;;;;;;;23.23;5.70;;;19.00;56.30;;;;;;5067749;28;20312;-85
2023/04/28 11:51:01;;;;;;;25.90;6.13;;;18.90;56.10;;;;;;5068490;28;20235;-87
2023/04/28 11:53:41;;;;;;;20.33;6.20;;;18.90;56.20;;;;;;5072168;28;20238;-86
2023/04/28 11:56:08;;;;;;;24.47;5.67;;;19.00;56.30;;;;;;5081302;28;20278;-86
2023/04/28 11:58:35;;;;;;;23.40;5.80;;;18.90;56.20;;;;;;5083560;28;20289;-88
2023/04/28 12:01:11;;;;;;;25.47;5.87;;;19.00;56.30;;;;;;5088465;28;20278;-85
2023/04/28 12:03:44;;;;;;;24.17;5.63;;;19.00;56.30;;;;;;5081327;28;20306;-86
2023/04/28 12:06:11;;;;;;;27.13;5.80;;;19.00;56.30;;;;;;5067754;28;20214;-86
2023/04/28 12:08:39;;;;;;;20.63;5.50;;;19.00;56.30;;;;;;5068227;28;20210;-85
2023/04/28 12:11:11;;;;;;;32.53;6.63;;;19.00;56.30;;;;;;5071790;28;20286;-87
2023/04/28 12:13:39;;;;;;;21.87;5.50;;;19.00;56.30;;;;;;5076189;28;20275;-90
2023/04/28 12:16:07;;;;;;;28.03;5.93;;;19.00;56.30;;;;;;5091947;28;20272;-91
2023/04/28 12:18:36;;;;;;;23.67;5.77;;;19.00;56.30;;;;;;5091589;28;20194;-87
2023/04/28 12:21:03;;;;;;;27.30;6.23;;;19.00;56.30;;;;;;5092029;28;20270;-88
2023/04/28 12:23:31;;;;;;;25.07;6.43;;;19.00;56.30;;;;;;5090925;28;21050;-88
2023/04/28 12:25:59;;;;;;;18.87;5.13;;;19.00;56.30;;;;;;5091686;28;20187;-87
2023/04/28 12:28:38;;;;;;;20.63;5.27;;;19.00;56.30;;;;;;5085495;28;20207;-85
2023/04/28 12:31:07;;;;;;;26.23;6.00;;;19.10;56.50;;;;;;5080387;28;20257;-91
2023/04/28 12:33:37;;;;;;;24.03;5.43;;;19.10;56.40;;;;;;5088370;28;20234;-87
2023/04/28 12:36:05;;;;;;;28.43;6.20;;;19.10;56.40;;;;;;5091412;28;20202;-85
2023/04/28 12:38:32;;;;;;;27.93;5.90;;;19.10;56.40;;;;;;5076601;28;20222;-85
2023/04/28 12:40:59;;;;;;;27.73;6.00;;;19.10;56.40;;;;;;5078967;28;20638;-86